This is the latest recevied weather packets stored in our database for station/object HS2LXA-WX. If no packets are shown the sender has not sent any weather packets the latest 10 day(s).
| Time | Temp. | Humidity | Pressure | Rain* | Wind** | Luminosity | Snow |
|---|---|---|---|---|---|---|---|
| 1777751758 | 32.22° C | 70% | 1013.2 hPa | 0 mm | - | - | - |
| 1777751158 | 32.22° C | 70% | 1013.2 hPa | 0 mm | - | - | - |
| 1777750558 | 32.22° C | 70% | 1013.2 hPa | 0 mm | - | - | - |
| 1777749957 | 32.22° C | 69% | 1013.2 hPa | 0 mm | - | - | - |
| 1777749357 | 32.78° C | 69% | 1013.1 hPa | 0 mm | - | - | - |
| 1777748757 | 32.22° C | 68% | 1013.1 hPa | 0 mm | - | - | - |
| 1777748158 | 32.78° C | 69% | 1013.2 hPa | 0 mm | - | - | - |
| 1777747558 | 32.78° C | 69% | 1013.2 hPa | 0 mm | - | - | - |
| 1777746956 | 32.78° C | 69% | 1013.1 hPa | 0 mm | - | - | - |
| 1777746357 | 32.78° C | 69% | 1013.1 hPa | 0 mm | - | - | - |
| 1777745756 | 32.78° C | 68% | 1013.1 hPa | 0 mm | - | - | - |
| 1777745156 | 32.78° C | 68% | 1013.1 hPa | 0 mm | - | - | - |
| 1777744554 | 32.78° C | 67% | 1013.1 hPa | 0 mm | - | - | - |
| 1777743954 | 32.78° C | 67% | 1013.2 hPa | 0 mm | - | - | - |
| 1777742987 | 32.78° C | 67% | 1013.1 hPa | 0 mm | - | - | - |
| 1777741357 | 32.78° C | 67% | 1013.1 hPa | 0 mm | - | - | - |
| 1777740756 | 32.78° C | 67% | 1013.2 hPa | 0 mm | - | - | - |
| 1777739463 | 32.78° C | 69% | 1013.2 hPa | 0 mm | - | - | - |
| 1777738863 | 33.33° C | 67% | 1013.1 hPa | 0 mm | - | - | - |
| 1777738266 | 32.78° C | 68% | 1013.1 hPa | 0 mm | - | - | - |
| 1777737663 | 31.67° C | 74% | 1013.1 hPa | 0 mm | - | - | - |
| 1777736186 | 32.22° C | 68% | 1013.1 hPa | 0 mm | - | - | - |
| 1777735331 | 32.22° C | 68% | 1013.1 hPa | 0 mm | - | - | - |
| 1777734732 | 32.78° C | 68% | 1013.2 hPa | 0 mm | - | - | - |
| 1777733362 | 32.78° C | 68% | 1013.1 hPa | 0 mm | - | - | - |
* Rain latest hour (hover to see other rain measurements)
** Current wind speed in m/s (hover to see current wind gust speed)